Time;durP1;ratioP1;P1;durP2;ratioP2;P2;SDS_P1;SDS_P2;PMS_P1;PMS_P2;Temp;Humidity;BMP_temperature;BMP_pressure;BME280_temperature;BME280_humidity;BME280_pressure;Samples;Min_cycle;Max_cycle;Signal;HPM_P1;HPM_P2
2023/03/12 00:01:26;;;;;;;6.6;2.9;;;;;;;;;;;;;-72
2023/03/12 00:02:10;;;;;;;;;;;;;;;0.79;94.69434;101230.8;;;;-71
2023/03/12 00:07:08;;;;;;;;;;;;;;;0.78;94.55469;101225.4;;;;-71
2023/03/12 00:12:08;;;;;;;;;;;;;;;0.79;94.68555;101223.8;;;;-71
2023/03/12 00:17:07;;;;;;;;;;;;;;;0.82;94.67871;101221.8;;;;-71
2023/03/12 00:22:07;;;;;;;;;;;;;;;0.84;94.71777;101212;;;;-71
2023/03/12 00:27:07;;;;;;;;;;;;;;;0.88;94.33984;101207.1;;;;-72
2023/03/12 00:31:26;;;;;;;6.7;2.6;;;;;;;;;;;;;-71
2023/03/12 00:32:07;;;;;;;;;;;;;;;0.9;94.39746;101193.1;;;;-72
2023/03/12 00:37:07;;;;;;;;;;;;;;;0.9;94.45117;101191.9;;;;-72
2023/03/12 00:42:07;;;;;;;;;;;;;;;0.91;94.36719;101182.2;;;;-72
2023/03/12 00:47:07;;;;;;;;;;;;;;;0.91;94.14063;101171.6;;;;-70
2023/03/12 00:52:07;;;;;;;;;;;;;;;0.94;94.31934;101171.1;;;;-72
2023/03/12 00:57:07;;;;;;;;;;;;;;;0.93;94.12109;101167.4;;;;-72
2023/03/12 01:01:26;;;;;;;6.3;2.7;;;;;;;;;;;;;-70
2023/03/12 01:02:07;;;;;;;;;;;;;;;0.93;94.05859;101165.8;;;;-71
2023/03/12 01:07:07;;;;;;;;;;;;;;;0.92;93.9707;101160.5;;;;-71
2023/03/12 01:12:07;;;;;;;;;;;;;;;0.92;94.19531;101160.5;;;;-71
2023/03/12 01:17:07;;;;;;;;;;;;;;;0.9;93.90039;101161.9;;;;-71
2023/03/12 01:22:07;;;;;;;;;;;;;;;0.88;93.98242;101160.7;;;;-71
2023/03/12 01:27:07;;;;;;;;;;;;;;;0.86;93.91504;101152.5;;;;-71
2023/03/12 01:31:24;;;;;;;5.9;2.9;;;;;;;;;;;;;-73
2023/03/12 01:32:07;;;;;;;;;;;;;;;0.87;93.72168;101145.1;;;;-71
2023/03/12 01:37:07;;;;;;;;;;;;;;;0.85;93.75;101143;;;;-71
2023/03/12 01:42:07;;;;;;;;;;;;;;;0.85;93.55664;101140.5;;;;-71
2023/03/12 01:47:07;;;;;;;;;;;;;;;0.85;93.56641;101135.4;;;;-71
2023/03/12 01:52:08;;;;;;;;;;;;;;;0.85;93.55664;101135.2;;;;-71
2023/03/12 01:57:08;;;;;;;;;;;;;;;0.86;93.35352;101123.6;;;;-71
2023/03/12 02:01:24;;;;;;;6.9;3;;;;;;;;;;;;;-72
2023/03/12 02:02:08;;;;;;;;;;;;;;;0.87;93.22852;101119.3;;;;-72
2023/03/12 02:07:10;;;;;;;;;;;;;;;0.89;93.25195;101110.6;;;;-71
2023/03/12 02:12:07;;;;;;;;;;;;;;;0.88;93.21973;101102.7;;;;-71
2023/03/12 02:17:07;;;;;;;;;;;;;;;0.9;93.08105;101094.2;;;;-71
2023/03/12 02:22:07;;;;;;;;;;;;;;;0.9;93.05078;101086.7;;;;-71
2023/03/12 02:27:07;;;;;;;;;;;;;;;0.91;93.14941;101075.5;;;;-72
2023/03/12 02:31:24;;;;;;;8.2;3.2;;;;;;;;;;;;;-71
2023/03/12 02:32:07;;;;;;;;;;;;;;;0.93;92.91699;101076.1;;;;-71
2023/03/12 02:37:07;;;;;;;;;;;;;;;0.93;93.00293;101059.7;;;;-71
2023/03/12 02:42:07;;;;;;;;;;;;;;;0.95;92.87988;101049.1;;;;-72
2023/03/12 02:47:07;;;;;;;;;;;;;;;0.96;92.95703;101046.9;;;;-71
2023/03/12 02:52:07;;;;;;;;;;;;;;;0.98;92.74512;101045.4;;;;-71
2023/03/12 02:57:07;;;;;;;;;;;;;;;0.98;92.85254;101032.5;;;;-71
2023/03/12 03:01:23;;;;;;;8.2;3.2;;;;;;;;;;;;;-72
2023/03/12 03:02:08;;;;;;;;;;;;;;;0.98;92.9375;101021.6;;;;-71
2023/03/12 03:07:07;;;;;;;;;;;;;;;0.98;92.88574;101004.9;;;;-73
2023/03/12 03:12:07;;;;;;;;;;;;;;;0.98;92.87207;100998.5;;;;-71
2023/03/12 03:17:07;;;;;;;;;;;;;;;0.99;92.8418;100984.9;;;;-72
2023/03/12 03:22:07;;;;;;;;;;;;;;;0.98;92.79883;100979;;;;-70
2023/03/12 03:27:07;;;;;;;;;;;;;;;0.99;92.78809;100965;;;;-71
2023/03/12 03:31:22;;;;;;;8.4;3.1;;;;;;;;;;;;;-71
2023/03/12 03:32:07;;;;;;;;;;;;;;;0.99;92.875;100957.8;;;;-72
2023/03/12 03:37:07;;;;;;;;;;;;;;;0.99;92.81152;100939;;;;-71
2023/03/12 03:42:07;;;;;;;;;;;;;;;1.02;92.89355;100936;;;;-71
2023/03/12 03:47:07;;;;;;;;;;;;;;;1.09;92.57324;100933.3;;;;-71
2023/03/12 03:52:07;;;;;;;;;;;;;;;1.12;92.60059;100931.8;;;;-71
2023/03/12 03:57:07;;;;;;;;;;;;;;;1.13;92.77637;100929.2;;;;-71
2023/03/12 04:01:22;;;;;;;7.8;3.2;;;;;;;;;;;;;-72
2023/03/12 04:02:07;;;;;;;;;;;;;;;1.17;92.66602;100928.9;;;;-72
2023/03/12 04:07:07;;;;;;;;;;;;;;;1.17;92.54688;100925.5;;;;-71
2023/03/12 04:12:07;;;;;;;;;;;;;;;1.17;92.51465;100911.6;;;;-72
2023/03/12 04:17:07;;;;;;;;;;;;;;;1.2;92.5332;100905;;;;-71
2023/03/12 04:22:07;;;;;;;;;;;;;;;1.25;92.52344;100909.8;;;;-71
2023/03/12 04:27:07;;;;;;;;;;;;;;;1.28;92.3252;100905.5;;;;-70
2023/03/12 04:31:21;;;;;;;6.5;2.9;;;;;;;;;;;;;-72
2023/03/12 04:32:07;;;;;;;;;;;;;;;1.29;92.34668;100900.5;;;;-71
2023/03/12 04:37:07;;;;;;;;;;;;;;;1.31;92.29785;100886.9;;;;-70
2023/03/12 04:42:07;;;;;;;;;;;;;;;1.34;92.41211;100866.8;;;;-71
2023/03/12 04:47:07;;;;;;;;;;;;;;;1.39;92.76953;100876.1;;;;-71
2023/03/12 04:52:07;;;;;;;;;;;;;;;1.42;92.82715;100863.8;;;;-70
2023/03/12 04:57:07;;;;;;;;;;;;;;;1.43;92.89551;100854.5;;;;-71
2023/03/12 05:01:26;;;;;;;8.3;2.9;;;;;;;;;;;;;-71
2023/03/12 05:02:07;;;;;;;;;;;;;;;1.46;93.07422;100851.9;;;;-72
2023/03/12 05:07:09;;;;;;;;;;;;;;;1.48;93.23145;100837.6;;;;-72
2023/03/12 05:12:07;;;;;;;;;;;;;;;1.5;93.42773;100831.9;;;;-71
2023/03/12 05:17:07;;;;;;;;;;;;;;;1.52;93.68164;100824.1;;;;-71
2023/03/12 05:22:07;;;;;;;;;;;;;;;1.53;93.79102;100815.4;;;;-71
2023/03/12 05:27:08;;;;;;;;;;;;;;;1.53;93.97461;100805.6;;;;-71
2023/03/12 05:31:21;;;;;;;6.6;2.5;;;;;;;;;;;;;-70
2023/03/12 05:32:07;;;;;;;;;;;;;;;1.56;93.96973;100804.4;;;;-71
2023/03/12 05:37:07;;;;;;;;;;;;;;;1.59;94.1377;100806.7;;;;-71
2023/03/12 05:42:07;;;;;;;;;;;;;;;1.6;94.30176;100808.9;;;;-70
2023/03/12 05:47:07;;;;;;;;;;;;;;;1.62;94.36133;100791.8;;;;-71
2023/03/12 05:52:08;;;;;;;;;;;;;;;1.63;94.48242;100789.5;;;;-71
2023/03/12 05:57:07;;;;;;;;;;;;;;;1.65;94.55078;100799;;;;-71
2023/03/12 06:01:22;;;;;;;5.4;2.6;;;;;;;;;;;;;-71
2023/03/12 06:02:06;;;;;;;;;;;;;;;1.67;94.73828;100804.9;;;;-71
2023/03/12 06:07:07;;;;;;;;;;;;;;;1.7;94.88477;100791.2;;;;-70
2023/03/12 06:12:07;;;;;;;;;;;;;;;1.7;95.04883;100793.6;;;;-71
2023/03/12 06:17:07;;;;;;;;;;;;;;;1.72;95.04004;100801.4;;;;-71
2023/03/12 06:22:07;;;;;;;;;;;;;;;1.74;95.44531;100792.1;;;;-71
2023/03/12 06:27:07;;;;;;;;;;;;;;;1.78;96.22168;100771.5;;;;-71
2023/03/12 06:31:21;;;;;;;7;3.3;;;;;;;;;;;;;-71
2023/03/12 06:32:07;;;;;;;;;;;;;;;1.81;96.77734;100772.7;;;;-71
2023/03/12 06:37:07;;;;;;;;;;;;;;;1.81;96.78809;100778.6;;;;-72
2023/03/12 06:42:07;;;;;;;;;;;;;;;1.83;97.3623;100769.1;;;;-73
2023/03/12 06:47:07;;;;;;;;;;;;;;;1.84;97.47461;100770;;;;-72
2023/03/12 06:52:07;;;;;;;;;;;;;;;1.84;97.75195;100756.5;;;;-71
2023/03/12 06:57:07;;;;;;;;;;;;;;;1.84;97.87305;100733.4;;;;-73
2023/03/12 07:01:20;;;;;;;7.4;3.6;;;;;;;;;;;;;-71
2023/03/12 07:02:07;;;;;;;;;;;;;;;1.87;98.18164;100728.5;;;;-73
2023/03/12 07:07:07;;;;;;;;;;;;;;;1.89;98.39258;100719;;;;-72
2023/03/12 07:12:07;;;;;;;;;;;;;;;1.9;97.66992;100732.7;;;;-74
2023/03/12 07:17:07;;;;;;;;;;;;;;;1.93;98.09863;100738.1;;;;-71
2023/03/12 07:22:07;;;;;;;;;;;;;;;1.97;98.15039;100750.8;;;;-70
2023/03/12 07:27:06;;;;;;;;;;;;;;;2;98.37207;100746;;;;-73
2023/03/12 07:31:20;;;;;;;10.8;4.2;;;;;;;;;;;;;-72
2023/03/12 07:32:07;;;;;;;;;;;;;;;2.02;98.14941;100754.1;;;;-72
2023/03/12 07:37:07;;;;;;;;;;;;;;;2.04;98.52051;100747.2;;;;-71
2023/03/12 07:42:07;;;;;;;;;;;;;;;2.05;98.26563;100757.3;;;;-70
2023/03/12 07:47:07;;;;;;;;;;;;;;;2.09;98.49023;100750.8;;;;-71
2023/03/12 07:52:08;;;;;;;;;;;;;;;2.13;98.99707;100735.5;;;;-72
2023/03/12 07:57:07;;;;;;;;;;;;;;;2.16;98.7334;100727.4;;;;-71
2023/03/12 08:01:20;;;;;;;10.5;4.8;;;;;;;;;;;;;-72
2023/03/12 08:02:07;;;;;;;;;;;;;;;2.24;99.22461;100722;;;;-71
2023/03/12 08:07:07;;;;;;;;;;;;;;;2.3;99.30664;100718.2;;;;-72
2023/03/12 08:12:07;;;;;;;;;;;;;;;2.36;99.74023;100731.8;;;;-71
2023/03/12 08:17:07;;;;;;;;;;;;;;;2.39;99.58398;100717.5;;;;-71
2023/03/12 08:22:08;;;;;;;;;;;;;;;2.44;99.58594;100729.6;;;;-72
2023/03/12 08:27:07;;;;;;;;;;;;;;;2.51;100;100730.5;;;;-71
2023/03/12 08:31:19;;;;;;;10.8;5;;;;;;;;;;;;;-71
2023/03/12 08:32:07;;;;;;;;;;;;;;;2.57;100;100730;;;;-71
2023/03/12 08:37:07;;;;;;;;;;;;;;;2.64;100;100719.4;;;;-71
2023/03/12 08:42:07;;;;;;;;;;;;;;;2.73;100;100724;;;;-72
2023/03/12 08:47:07;;;;;;;;;;;;;;;2.82;100;100722.9;;;;-71
2023/03/12 08:52:07;;;;;;;;;;;;;;;2.92;100;100729.7;;;;-71
2023/03/12 08:57:07;;;;;;;;;;;;;;;3.04;100;100725.8;;;;-72
2023/03/12 09:01:19;;;;;;;15.7;7;;;;;;;;;;;;;-71
2023/03/12 09:02:07;;;;;;;;;;;;;;;3.18;100;100725.4;;;;-71
2023/03/12 09:07:08;;;;;;;;;;;;;;;3.32;100;100730.4;;;;-72
2023/03/12 09:12:07;;;;;;;;;;;;;;;3.51;100;100718.1;;;;-69
2023/03/12 09:17:07;;;;;;;;;;;;;;;3.64;100;100720;;;;-71
2023/03/12 09:22:07;;;;;;;;;;;;;;;3.75;100;100725.9;;;;-72
2023/03/12 09:27:07;;;;;;;;;;;;;;;3.85;100;100723.6;;;;-72
2023/03/12 09:31:19;;;;;;;16.7;8;;;;;;;;;;;;;-71
2023/03/12 09:32:08;;;;;;;;;;;;;;;3.98;100;100732;;;;-71
2023/03/12 09:37:07;;;;;;;;;;;;;;;4.05;100;100737;;;;-71
2023/03/12 09:42:07;;;;;;;;;;;;;;;4.11;100;100736.7;;;;-71
2023/03/12 09:47:11;;;;;;;;;;;;;;;4.19;100;100737.4;;;;-71
2023/03/12 09:52:11;;;;;;;;;;;;;;;4.24;100;100735;;;;-72
2023/03/12 09:57:12;;;;;;;;;;;;;;;4.35;100;100734.8;;;;-71
2023/03/12 10:01:25;;;;;;;17.8;6.8;;;;;;;;;;;;;-72
2023/03/12 10:02:11;;;;;;;;;;;;;;;4.53;100;100728.5;;;;-71
2023/03/12 10:07:11;;;;;;;;;;;;;;;4.69;100;100719.4;;;;-72
2023/03/12 10:12:09;;;;;;;;;;;;;;;4.95;100;100715.3;;;;-71
2023/03/12 10:17:16;;;;;;;;;;;;;;;5.15;100;100713.5;;;;-72
2023/03/12 10:22:10;;;;;;;;;;;;;;;5.38;100;100708;;;;-72
2023/03/12 10:27:14;;;;;;;;;;;;;;;5.61;100;100712.2;;;;-72
2023/03/12 10:31:22;;;;;;;17.3;4.5;;;;;;;;;;;;;-71
2023/03/12 10:32:08;;;;;;;;;;;;;;;5.9;100;100717.9;;;;-72
2023/03/12 10:37:15;;;;;;;;;;;;;;;6.18;100;100717.2;;;;-72
2023/03/12 10:42:15;;;;;;;;;;;;;;;6.45;100;100718.3;;;;-71
2023/03/12 10:47:24;;;;;;;;;;;;;;;6.69;100;100727.5;;;;-73
2023/03/12 10:52:08;;;;;;;;;;;;;;;6.87;99.86719;100728.6;;;;-71
2023/03/12 10:57:07;;;;;;;;;;;;;;;6.92;100;100730.8;;;;-71
2023/03/12 11:01:23;;;;;;;17;3.1;;;;;;;;;;;;;-72
2023/03/12 11:02:22;;;;;;;;;;;;;;;7.02;100;100744.7;;;;-72
2023/03/12 11:07:19;;;;;;;;;;;;;;;7.14;100;100749.2;;;;-68
2023/03/12 11:12:17;;;;;;;;;;;;;;;7.23;100;100753.2;;;;-72
2023/03/12 11:17:16;;;;;;;;;;;;;;;7.35;99.92188;100750.5;;;;-73
2023/03/12 11:22:10;;;;;;;;;;;;;;;7.43;100;100747.6;;;;-73
2023/03/12 11:27:08;;;;;;;;;;;;;;;7.52;100;100751.7;;;;-72
2023/03/12 11:31:23;;;;;;;16.4;2.8;;;;;;;;;;;;;-71
2023/03/12 11:32:09;;;;;;;;;;;;;;;7.62;100;100754;;;;-71
2023/03/12 11:37:10;;;;;;;;;;;;;;;7.68;100;100745.7;;;;-72
2023/03/12 11:42:13;;;;;;;;;;;;;;;7.82;100;100732;;;;-71
2023/03/12 11:47:15;;;;;;;;;;;;;;;7.94;100;100734.9;;;;-72
2023/03/12 11:52:12;;;;;;;;;;;;;;;8.01;100;100736.4;;;;-70
2023/03/12 11:57:09;;;;;;;;;;;;;;;8.06;100;100727.1;;;;-70
2023/03/12 12:01:23;;;;;;;19.5;3.1;;;;;;;;;;;;;-72
2023/03/12 12:02:14;;;;;;;;;;;;;;;8.04;99.97266;100721.6;;;;-71
2023/03/12 12:07:11;;;;;;;;;;;;;;;8.04;99.68848;100720.9;;;;-71
2023/03/12 12:12:14;;;;;;;;;;;;;;;8.01;99.90137;100721.7;;;;-70
2023/03/12 12:17:13;;;;;;;;;;;;;;;8.06;100;100706.8;;;;-68
2023/03/12 12:22:25;;;;;;;;;;;;;;;8.2;99.91016;100695.3;;;;-71
2023/03/12 12:27:11;;;;;;;;;;;;;;;8.35;99.65918;100694.6;;;;-72
2023/03/12 12:31:33;;;;;;;20.9;3.4;;;;;;;;;;;;;-71
2023/03/12 12:32:08;;;;;;;;;;;;;;;8.55;99.22461;100693.3;;;;-72
2023/03/12 12:37:17;;;;;;;;;;;;;;;8.65;98.80762;100697.5;;;;-71
2023/03/12 12:42:08;;;;;;;;;;;;;;;8.73;97.98438;100701.2;;;;-72
2023/03/12 12:47:12;;;;;;;;;;;;;;;8.74;97.78906;100701;;;;-71
2023/03/12 12:52:09;;;;;;;;;;;;;;;8.79;97.97461;100689.7;;;;-72
2023/03/12 12:57:11;;;;;;;;;;;;;;;8.79;97.67871;100688.7;;;;-72
2023/03/12 13:01:22;;;;;;;23.3;3.6;;;;;;;;;;;;;-71
2023/03/12 13:02:07;;;;;;;;;;;;;;;8.83;97.66895;100693.4;;;;-71
2023/03/12 13:07:17;;;;;;;;;;;;;;;8.88;98.11719;100686.5;;;;-71
2023/03/12 13:12:09;;;;;;;;;;;;;;;8.9;97.41797;100688.1;;;;-71
2023/03/12 13:17:22;;;;;;;;;;;;;;;8.92;96.97266;100689.6;;;;-71
2023/03/12 13:22:12;;;;;;;;;;;;;;;8.95;97.13379;100693.9;;;;-71
2023/03/12 13:27:11;;;;;;;;;;;;;;;8.91;96.41309;100699.2;;;;-70
2023/03/12 13:31:34;;;;;;;22.9;3.4;;;;;;;;;;;;;-70
2023/03/12 13:32:07;;;;;;;;;;;;;;;8.84;96.86816;100696.2;;;;-71
2023/03/12 13:37:17;;;;;;;;;;;;;;;8.85;96.75;100702.8;;;;-71
2023/03/12 13:42:16;;;;;;;;;;;;;;;8.92;96.67773;100713.1;;;;-70
2023/03/12 13:47:08;;;;;;;;;;;;;;;8.98;96.4707;100703.2;;;;-72
2023/03/12 13:52:12;;;;;;;;;;;;;;;9.04;96.12305;100709.3;;;;-71
2023/03/12 13:57:08;;;;;;;;;;;;;;;9.11;95.8291;100738.9;;;;-72
2023/03/12 14:01:25;;;;;;;21.8;3.4;;;;;;;;;;;;;-70
2023/03/12 14:02:08;;;;;;;;;;;;;;;9.26;95.55566;100734;;;;-72
2023/03/12 14:07:15;;;;;;;;;;;;;;;9.37;94.96484;100725.7;;;;-71
2023/03/12 14:12:11;;;;;;;;;;;;;;;9.38;94.85645;100736.1;;;;-71
2023/03/12 14:17:07;;;;;;;;;;;;;;;9.52;93.85352;100747.7;;;;-70
2023/03/12 14:22:08;;;;;;;;;;;;;;;9.51;93.23535;100746.5;;;;-71
2023/03/12 14:27:08;;;;;;;;;;;;;;;9.56;93.51074;100761.7;;;;-70
2023/03/12 14:31:26;;;;;;;24.7;3.2;;;;;;;;;;;;;-70
2023/03/12 14:32:08;;;;;;;;;;;;;;;9.57;93.25879;100761.9;;;;-71
2023/03/12 14:37:13;;;;;;;;;;;;;;;9.51;92.8291;100756.3;;;;-71
2023/03/12 14:42:08;;;;;;;;;;;;;;;9.52;92.52246;100756.5;;;;-70
2023/03/12 14:47:09;;;;;;;;;;;;;;;9.52;92.66602;100749.5;;;;-70
2023/03/12 14:52:07;;;;;;;;;;;;;;;9.51;92.63086;100757.8;;;;-71
2023/03/12 14:57:06;;;;;;;;;;;;;;;9.49;93.01172;100738.4;;;;-70
2023/03/12 15:01:29;;;;;;;25.7;3.2;;;;;;;;;;;;;-71
2023/03/12 15:02:07;;;;;;;;;;;;;;;9.61;93.08105;100735.3;;;;-71
2023/03/12 15:07:08;;;;;;;;;;;;;;;9.55;92.48633;100728.5;;;;-71
2023/03/12 15:12:08;;;;;;;;;;;;;;;9.53;92.58203;100727.3;;;;-72
2023/03/12 15:17:07;;;;;;;;;;;;;;;9.5;93.04883;100723.2;;;;-71
2023/03/12 15:22:07;;;;;;;;;;;;;;;9.44;92.76074;100726.8;;;;-71
2023/03/12 15:27:20;;;;;;;;;;;;;;;9.42;92.99609;100734.4;;;;-71
2023/03/12 15:31:28;;;;;;;21.6;3.5;;;;;;;;;;;;;-71
2023/03/12 15:32:16;;;;;;;;;;;;;;;9.35;92.60938;100720.7;;;;-72
2023/03/12 15:37:16;;;;;;;;;;;;;;;9.31;93.08496;100724.5;;;;-71
2023/03/12 15:42:11;;;;;;;;;;;;;;;9.31;92.93164;100727.3;;;;-71
2023/03/12 15:47:12;;;;;;;;;;;;;;;9.27;92.64453;100725.5;;;;-71
2023/03/12 15:52:08;;;;;;;;;;;;;;;9.23;93.14453;100708.6;;;;-71
2023/03/12 15:57:26;;;;;;;;;;;;;;;9.13;93.0791;100691.7;;;;-72
2023/03/12 16:01:30;;;;;;;20.9;3.3;;;;;;;;;;;;;-73
2023/03/12 16:02:07;;;;;;;;;;;;;;;9.09;93.16895;100692.6;;;;-70
2023/03/12 16:07:06;;;;;;;;;;;;;;;9.05;93.3584;100687.8;;;;-72
2023/03/12 16:12:07;;;;;;;;;;;;;;;8.98;93.79297;100681.8;;;;-71
2023/03/12 16:17:06;;;;;;;;;;;;;;;8.91;93.93262;100685;;;;-72
2023/03/12 16:22:06;;;;;;;;;;;;;;;8.89;93.65234;100682.1;;;;-71
2023/03/12 16:27:07;;;;;;;;;;;;;;;8.85;94.10547;100682.2;;;;-71
2023/03/12 16:31:30;;;;;;;23.9;3.5;;;;;;;;;;;;;-70
2023/03/12 16:32:13;;;;;;;;;;;;;;;8.79;94.44336;100674.9;;;;-71
2023/03/12 16:37:07;;;;;;;;;;;;;;;8.74;94.48828;100658.9;;;;-71
2023/03/12 16:42:08;;;;;;;;;;;;;;;8.73;94.59375;100653.9;;;;-72
2023/03/12 16:47:06;;;;;;;;;;;;;;;8.67;94.78125;100660.5;;;;-72
2023/03/12 16:52:15;;;;;;;;;;;;;;;8.62;94.85547;100651.9;;;;-72
2023/03/12 16:57:08;;;;;;;;;;;;;;;8.5;95.34668;100660.4;;;;-72
2023/03/12 17:01:31;;;;;;;23.4;3.6;;;;;;;;;;;;;-71
2023/03/12 17:02:12;;;;;;;;;;;;;;;8.46;95.54492;100662.5;;;;-71
2023/03/12 17:07:06;;;;;;;;;;;;;;;8.45;95.74023;100679.3;;;;-68
2023/03/12 17:12:07;;;;;;;;;;;;;;;8.37;96.15234;100666;;;;-72
2023/03/12 17:17:06;;;;;;;;;;;;;;;8.32;96.22754;100652.5;;;;-71
2023/03/12 17:22:08;;;;;;;;;;;;;;;8.29;96.65723;100652.8;;;;-71
2023/03/12 17:27:06;;;;;;;;;;;;;;;8.25;96.71582;100663.8;;;;-71
2023/03/12 17:31:32;;;;;;;24.1;3.6;;;;;;;;;;;;;-71
2023/03/12 17:32:06;;;;;;;;;;;;;;;8.17;96.95996;100668.6;;;;-72
2023/03/12 17:37:06;;;;;;;;;;;;;;;8.13;97.20605;100676.2;;;;-71
2023/03/12 17:42:06;;;;;;;;;;;;;;;8.09;97.5459;100670.9;;;;-72
2023/03/12 17:47:06;;;;;;;;;;;;;;;8.06;98.12891;100678.4;;;;-71
2023/03/12 17:52:08;;;;;;;;;;;;;;;8.02;98.04199;100677.2;;;;-72
2023/03/12 17:57:06;;;;;;;;;;;;;;;7.97;98.74219;100679.8;;;;-72
2023/03/12 18:01:33;;;;;;;29.9;4;;;;;;;;;;;;;-71
2023/03/12 18:02:07;;;;;;;;;;;;;;;7.92;99.04688;100678.3;;;;-71
2023/03/12 18:07:06;;;;;;;;;;;;;;;7.87;99.52832;100677.4;;;;-71
2023/03/12 18:12:06;;;;;;;;;;;;;;;7.82;99.9668;100682.9;;;;-71
2023/03/12 18:17:08;;;;;;;;;;;;;;;7.8;100;100679.5;;;;-74
2023/03/12 18:22:06;;;;;;;;;;;;;;;7.78;100;100679.4;;;;-72
2023/03/12 18:27:07;;;;;;;;;;;;;;;7.75;100;100679;;;;-72
2023/03/12 18:31:34;;;;;;;24.3;3.5;;;;;;;;;;;;;-72
2023/03/12 18:32:06;;;;;;;;;;;;;;;7.72;100;100681.5;;;;-71
2023/03/12 18:37:06;;;;;;;;;;;;;;;7.68;100;100679.6;;;;-72
2023/03/12 18:42:06;;;;;;;;;;;;;;;7.64;100;100675.7;;;;-71
2023/03/12 18:47:06;;;;;;;;;;;;;;;7.64;100;100666.3;;;;-72
2023/03/12 18:52:06;;;;;;;;;;;;;;;7.64;100;100662;;;;-72
2023/03/12 18:57:06;;;;;;;;;;;;;;;7.62;100;100657.2;;;;-71
2023/03/12 19:01:35;;;;;;;17.8;2.9;;;;;;;;;;;;;-72
2023/03/12 19:02:06;;;;;;;;;;;;;;;7.61;100;100644.5;;;;-71
2023/03/12 19:07:06;;;;;;;;;;;;;;;7.58;100;100637.5;;;;-72
2023/03/12 19:12:06;;;;;;;;;;;;;;;7.56;100;100642.3;;;;-71
2023/03/12 19:17:06;;;;;;;;;;;;;;;7.54;100;100639.5;;;;-71
2023/03/12 19:22:07;;;;;;;;;;;;;;;7.55;100;100636.2;;;;-72
2023/03/12 19:27:06;;;;;;;;;;;;;;;7.55;100;100622.2;;;;-71
2023/03/12 19:31:35;;;;;;;17.5;2.7;;;;;;;;;;;;;-72
2023/03/12 19:32:09;;;;;;;;;;;;;;;7.55;100;100623;;;;-73
2023/03/12 19:37:07;;;;;;;;;;;;;;;7.55;100;100615.2;;;;-72
2023/03/12 19:42:06;;;;;;;;;;;;;;;7.56;100;100610.3;;;;-70
2023/03/12 19:47:07;;;;;;;;;;;;;;;7.56;100;100604.1;;;;-71
2023/03/12 19:52:06;;;;;;;;;;;;;;;7.57;100;100609.4;;;;-72
2023/03/12 19:57:06;;;;;;;;;;;;;;;7.58;100;100582.7;;;;-71
2023/03/12 20:01:36;;;;;;;24.4;3;;;;;;;;;;;;;-71
2023/03/12 20:02:07;;;;;;;;;;;;;;;7.58;100;100566.4;;;;-71
2023/03/12 20:07:06;;;;;;;;;;;;;;;7.57;100;100568;;;;-72
2023/03/12 20:12:07;;;;;;;;;;;;;;;7.57;100;100563.8;;;;-73
2023/03/12 20:17:06;;;;;;;;;;;;;;;7.58;100;100578;;;;-71
2023/03/12 20:22:06;;;;;;;;;;;;;;;7.58;100;100561.3;;;;-72
2023/03/12 20:27:06;;;;;;;;;;;;;;;7.6;100;100557.5;;;;-72
2023/03/12 20:31:38;;;;;;;15.7;2.5;;;;;;;;;;;;;-72
2023/03/12 20:32:06;;;;;;;;;;;;;;;7.58;100;100546.6;;;;-71
2023/03/12 20:37:06;;;;;;;;;;;;;;;7.57;100;100542.9;;;;-71
2023/03/12 20:42:06;;;;;;;;;;;;;;;7.58;100;100527.7;;;;-73
2023/03/12 20:47:06;;;;;;;;;;;;;;;7.59;100;100528.4;;;;-71
2023/03/12 20:52:06;;;;;;;;;;;;;;;7.6;100;100527.3;;;;-71
2023/03/12 20:57:09;;;;;;;;;;;;;;;7.64;100;100517;;;;-70
2023/03/12 21:01:37;;;;;;;14.9;2.5;;;;;;;;;;;;;-72
2023/03/12 21:02:06;;;;;;;;;;;;;;;7.64;100;100511.2;;;;-72
2023/03/12 21:07:06;;;;;;;;;;;;;;;7.66;100;100507.1;;;;-71
2023/03/12 21:12:07;;;;;;;;;;;;;;;7.65;100;100500.4;;;;-71
2023/03/12 21:17:07;;;;;;;;;;;;;;;7.64;100;100489.7;;;;-71
2023/03/12 21:22:06;;;;;;;;;;;;;;;7.65;100;100482.2;;;;-71
2023/03/12 21:27:10;;;;;;;;;;;;;;;7.64;100;100486.3;;;;-70
2023/03/12 21:31:37;;;;;;;17.6;2.7;;;;;;;;;;;;;-71
2023/03/12 21:32:06;;;;;;;;;;;;;;;7.67;100;100472.6;;;;-71
2023/03/12 21:37:06;;;;;;;;;;;;;;;7.67;100;100461.4;;;;-71
2023/03/12 21:42:07;;;;;;;;;;;;;;;7.68;100;100451.5;;;;-70
2023/03/12 21:47:06;;;;;;;;;;;;;;;7.71;100;100437.6;;;;-71
2023/03/12 21:52:07;;;;;;;;;;;;;;;7.7;100;100428.9;;;;-72
2023/03/12 21:57:07;;;;;;;;;;;;;;;7.72;100;100425.3;;;;-72
2023/03/12 22:01:37;;;;;;;17.9;2.7;;;;;;;;;;;;;-71
2023/03/12 22:02:06;;;;;;;;;;;;;;;7.74;100;100417.2;;;;-72
2023/03/12 22:07:06;;;;;;;;;;;;;;;7.74;100;100408.3;;;;-71
2023/03/12 22:12:07;;;;;;;;;;;;;;;7.73;100;100405.8;;;;-72
2023/03/12 22:17:06;;;;;;;;;;;;;;;7.74;100;100395.1;;;;-71
2023/03/12 22:22:06;;;;;;;;;;;;;;;7.74;100;100384.5;;;;-71
2023/03/12 22:27:06;;;;;;;;;;;;;;;7.72;100;100368.5;;;;-72
2023/03/12 22:31:38;;;;;;;18.1;3.1;;;;;;;;;;;;;-70
2023/03/12 22:32:07;;;;;;;;;;;;;;;7.7;100;100363.3;;;;-72
2023/03/12 22:37:06;;;;;;;;;;;;;;;7.72;100;100355.8;;;;-72
2023/03/12 22:42:06;;;;;;;;;;;;;;;7.7;100;100348.2;;;;-72
2023/03/12 22:47:06;;;;;;;;;;;;;;;7.69;100;100341.5;;;;-72
2023/03/12 22:52:07;;;;;;;;;;;;;;;7.69;100;100325.3;;;;-72
2023/03/12 22:57:07;;;;;;;;;;;;;;;7.68;100;100314.3;;;;-72
2023/03/12 23:01:41;;;;;;;15.8;2.9;;;;;;;;;;;;;-72
2023/03/12 23:02:06;;;;;;;;;;;;;;;7.67;100;100295.3;;;;-72
2023/03/12 23:07:08;;;;;;;;;;;;;;;7.64;100;100280.6;;;;-72
2023/03/12 23:12:06;;;;;;;;;;;;;;;7.63;100;100269.5;;;;-72
2023/03/12 23:17:06;;;;;;;;;;;;;;;7.62;100;100247.5;;;;-72
2023/03/12 23:22:06;;;;;;;;;;;;;;;7.64;100;100234.1;;;;-72
2023/03/12 23:27:07;;;;;;;;;;;;;;;7.62;100;100226.5;;;;-73
2023/03/12 23:31:39;;;;;;;18.5;3.4;;;;;;;;;;;;;-73
2023/03/12 23:32:07;;;;;;;;;;;;;;;7.62;100;100214.9;;;;-72
2023/03/12 23:37:06;;;;;;;;;;;;;;;7.6;100;100195.6;;;;-71
2023/03/12 23:42:07;;;;;;;;;;;;;;;7.61;100;100179.1;;;;-72
2023/03/12 23:47:09;;;;;;;;;;;;;;;7.58;100;100159;;;;-72
2023/03/12 23:52:07;;;;;;;;;;;;;;;7.59;100;100147.1;;;;-71
2023/03/12 23:57:06;;;;;;;;;;;;;;;7.58;100;100131.2;;;;-72
